McGuffey, OH (45859)

3:10 PM EST on March 06, 2015 (GMT -0500)
Ada | Change Station
CLOSE
Current Station
Personal Weather Station
Location: Ada, OH
Elevation: 912 ft
Nearby Weather Stations

Elev 912 ft 40.82 °N, 83.86 °W | Updated 41 seconds ago

Clear
Clear
23.4 °F
Feels Like 11 °F
N
14.0
Wind Variable Wind from South
Gusts 16.0 mph

Today
High -- | Low -- °F
--% Chance of Precip.
Yesterday
High -- | Low -- °F
Precip. -- in
7:01 AM 6:31 PM
Full, 99% visible
Pressure 30.46 in
Visibility 10.0 miles
Clouds Clear
Windchill 11 °F
Dew Point 15 °F
Humidity 70%
Rainfall in
Snow Depth Not available.
UV 5 out of 12
Pollen 2.20 out of 12
Air Quality Not available.
Flu Activity Not available.
METAR KAOH 061853Z AUTO 22012KT 10SM CLR M05/M12 A3041 RMK AO2 SLP315 T10501122

More Conditions Fewer Conditions

Pressure 30.46 in
Visibility 10.0 miles
Clouds Clear
Windchill 11 °F
Dew Point 15 °F
Humidity 70%
Rainfall in
Snow Depth Not available.
UV 5 out of 12
Pollen 2.20 out of 12
Air Quality Not available.
Flu Activity Not available.
METAR KAOH 061853Z AUTO 22012KT 10SM CLR M05/M12 A3041 RMK AO2 SLP315 T10501122

More Conditions Fewer Conditions

10-Day Weather Forecast

Almanac

Astronomy

Mar. 06, 2015 Rise Set
Actual Time
Civil Twilight
Nautical Twilight
Astronomical Twilight
Moon
Length of Visible Light
Length of Day
Tomorrow will be .
, % of the Moon is Illuminated

Today's Extremes

State Highs State Lows

Community

WunderPhotos

Upload Photos

1,803,386 photos uploaded!

WunderBlogs® & News

Nearby

Air Quality

  Air Quality AQ Index Pollutant
Not available.

Snow Depth

Station Depth Elevation

Earthquake Activity

City Distance Mag. Time & Date
Minimum magnitude displayed is 2.5.

Coastal Water Temperatures

Place Temperature

Nearby Weather Stations